Time;durP1;ratioP1;P1;durP2;ratioP2;P2;SDS_P1;SDS_P2;PMS_P1;PMS_P2;Temp;Humidity;BMP_temperature;BMP_pressure;BME280_temperature;BME280_humidity;BME280_pressure;Samples;Min_cycle;Max_cycle;Signal;HPM_P1;HPM_P2
2022/03/16 14:38:34;;;;;;;25.10;13.95;;;;;;;;;;4867842;23;20068;-87
2022/03/16 14:41:02;;;;;;;24.10;13.40;;;;;;;;;;4825866;29;20046;-86
2022/03/16 14:44:09;;;;;;;24.75;10.38;;;;;;;;;;4824852;29;20038;-88
2022/03/16 14:54:42;;;;;;;18.95;9.63;;;;;;;;;;5098418;23;20050;-86
2022/03/16 14:57:43;;;;;;;20.50;9.50;;;;;;;;;;4829881;29;20065;-93
2022/03/16 15:16:36;;;;;;;24.42;13.18;;;;;;;;;;4893010;23;20137;-86
2022/03/16 15:19:39;;;;;;;26.52;13.82;;;;;;;;;;4826754;29;20177;-85
2022/03/16 15:28:35;;;;;;;24.98;11.77;;;;;;;;;;4802318;29;20034;-85
2022/03/16 15:33:55;;;;;;;27.63;14.38;;;;;;;;;;4827006;29;19982;-85
2022/03/16 15:36:51;;;;;;;29.05;15.43;;;;;;;;;;4824238;29;20194;-86
2022/03/16 15:39:18;;;;;;;24.30;13.18;;;;;;;;;;4813061;29;20050;-85
2022/03/16 15:44:32;;;;;;;27.08;13.18;;;;;;;;;;4843565;29;20038;-87
2022/03/16 15:47:22;;;;;;;23.55;13.32;;;;;;;;;;4828796;29;20136;-86
2022/03/16 15:59:01;;;;;;;23.67;12.60;;;;;;;;;;4771189;29;20043;-86
2022/03/16 16:01:55;;;;;;;23.17;12.88;;;;;;;;;;4828667;29;20091;-86
2022/03/16 16:10:10;;;;;;;26.33;13.50;;;;;;;;;;5041044;23;20145;-88
2022/03/16 16:13:08;;;;;;;25.52;14.07;;;;;;;;;;4828506;29;20044;-93
2022/03/16 16:18:38;;;;;;;26.85;14.52;;;;;;;;;;4876895;23;20101;-85
2022/03/16 16:21:07;;;;;;;29.48;15.95;;;;;;;;;;5095747;23;20079;-89
2022/03/16 16:23:36;;;;;;;27.85;15.23;;;;;;;;;;4828152;29;20502;-91
2022/03/16 16:38:05;;;;;;;31.48;16.73;;;;;;;;;;5313261;23;20114;-92
2022/03/16 16:40:49;;;;;;;41.15;20.58;;;;;;;;;;4845552;29;20065;-90
2022/03/16 16:43:15;;;;;;;35.05;18.42;;;;;;;;;;4827357;29;20483;-84
2022/03/16 16:45:42;;;;;;;41.15;21.90;;;;;;;;;;4828021;29;20113;-84
2022/03/16 16:48:10;;;;;;;34.72;20.15;;;;;;;;;;4827586;29;20034;-82
2022/03/16 16:50:37;;;;;;;36.03;19.30;;;;;;;;;;4844602;29;20117;-84
2022/03/16 16:53:03;;;;;;;31.42;17.70;;;;;;;;;;4827698;29;20473;-85
2022/03/16 16:55:30;;;;;;;39.30;19.55;;;;;;;;;;4844357;29;20109;-83
2022/03/16 16:57:57;;;;;;;43.15;21.15;;;;;;;;;;4828226;29;20030;-84
2022/03/16 17:00:25;;;;;;;39.15;20.35;;;;;;;;;;4826753;29;20041;-84
2022/03/16 17:02:52;;;;;;;43.78;20.77;;;;;;;;;;4827262;29;20056;-83
2022/03/16 17:05:40;;;;;;;33.83;18.63;;;;;;;;;;4827373;29;20055;-83
2022/03/16 17:08:09;;;;;;;33.35;19.05;;;;;;;;;;4843988;29;20492;-84
2022/03/16 17:10:36;;;;;;;35.90;19.73;;;;;;;;;;4827091;29;20037;-84
2022/03/16 17:13:03;;;;;;;34.00;19.92;;;;;;;;;;4827137;29;20038;-83
2022/03/16 17:15:29;;;;;;;38.17;20.35;;;;;;;;;;4827603;29;20038;-83
2022/03/16 17:17:56;;;;;;;35.55;20.65;;;;;;;;;;4843280;29;20030;-83
2022/03/16 17:20:26;;;;;;;37.97;22.05;;;;;;;;;;4828726;29;20034;-90
2022/03/16 17:23:12;;;;;;;44.95;23.92;;;;;;;;;;4840612;29;20046;-89
2022/03/16 17:25:42;;;;;;;40.60;23.10;;;;;;;;;;4981750;23;21220;-89
2022/03/16 17:28:18;;;;;;;46.95;24.27;;;;;;;;;;4827166;29;20038;-88
2022/03/16 17:30:54;;;;;;;45.10;24.42;;;;;;;;;;4861619;24;20144;-83
2022/03/16 17:36:23;;;;;;;38.50;21.80;;;;;;;;;;4872082;23;20084;-84
2022/03/16 17:38:58;;;;;;;47.38;25.52;;;;;;;;;;4809028;29;20069;-85
2022/03/16 17:47:06;;;;;;;49.15;26.45;;;;;;;;;;4825225;29;20063;-86
2022/03/16 17:49:32;;;;;;;45.90;25.33;;;;;;;;;;4808434;29;20042;-85
2022/03/16 17:51:58;;;;;;;41.28;25.75;;;;;;;;;;4808183;29;20385;-85
2022/03/16 17:54:25;;;;;;;46.65;25.17;;;;;;;;;;4825041;29;20026;-84
2022/03/16 17:56:53;;;;;;;41.00;22.15;;;;;;;;;;4808504;29;20507;-86
2022/03/16 17:59:21;;;;;;;40.92;23.70;;;;;;;;;;4808388;29;20031;-86
2022/03/16 18:01:50;;;;;;;44.60;24.17;;;;;;;;;;4824666;29;20077;-86
2022/03/16 18:04:17;;;;;;;39.67;22.55;;;;;;;;;;4808219;29;20030;-84
2022/03/16 18:06:44;;;;;;;46.08;25.73;;;;;;;;;;4808271;29;20038;-85
2022/03/16 18:09:11;;;;;;;46.13;26.70;;;;;;;;;;4808192;29;20026;-82
2022/03/16 18:14:22;;;;;;;52.65;28.85;;;;;;;;;;4824922;29;20171;-84
2022/03/16 18:16:48;;;;;;;64.30;33.92;;;;;;;;;;4824650;29;20065;-85
2022/03/16 18:19:15;;;;;;;59.92;34.15;;;;;;;;;;4808165;29;20055;-85
2022/03/16 18:22:23;;;;;;;69.85;38.20;;;;;;;;;;4808222;29;20124;-84
2022/03/16 18:24:27;;;;;;;63.20;33.08;;;;;;;;;;4824358;29;20035;-83
2022/03/16 18:26:54;;;;;;;58.13;31.02;;;;;;;;;;4808246;29;20038;-86
2022/03/16 18:29:20;;;;;;;62.95;35.08;;;;;;;;;;4808468;29;20037;-88
2022/03/16 18:31:46;;;;;;;63.50;34.83;;;;;;;;;;4809152;29;20545;-84
2022/03/16 18:34:15;;;;;;;62.22;34.25;;;;;;;;;;4827835;29;20101;-84
2022/03/16 18:36:42;;;;;;;58.08;32.97;;;;;;;;;;4807959;29;20034;-84
2022/03/16 18:39:08;;;;;;;67.90;34.03;;;;;;;;;;4807669;29;20445;-88
2022/03/16 18:42:11;;;;;;;74.28;36.38;;;;;;;;;;4807374;29;20031;-85
2022/03/16 18:44:42;;;;;;;65.60;34.23;;;;;;;;;;4808388;29;20514;-89
2022/03/16 18:47:34;;;;;;;55.83;29.38;;;;;;;;;;4809062;29;20416;-93
2022/03/16 18:53:19;;;;;;;68.13;33.28;;;;;;;;;;4862599;23;20073;-88
2022/03/16 18:55:47;;;;;;;66.53;36.90;;;;;;;;;;4843570;29;20037;-84
2022/03/16 18:58:15;;;;;;;66.13;34.20;;;;;;;;;;4823248;29;20612;-84
2022/03/16 19:00:46;;;;;;;75.03;38.10;;;;;;;;;;4857314;23;20468;-91
2022/03/16 19:03:13;;;;;;;64.50;32.88;;;;;;;;;;4827636;29;20572;-84
2022/03/16 19:05:42;;;;;;;65.28;31.33;;;;;;;;;;4825836;29;20399;-86
2022/03/16 19:08:10;;;;;;;63.83;31.65;;;;;;;;;;4825995;29;20034;-86
2022/03/16 19:10:36;;;;;;;84.40;41.70;;;;;;;;;;4829812;29;20053;-85
2022/03/16 19:13:47;;;;;;;86.03;40.90;;;;;;;;;;4825954;29;20129;-90
2022/03/16 19:16:18;;;;;;;63.15;31.30;;;;;;;;;;4792543;29;20048;-85
2022/03/16 19:18:56;;;;;;;69.05;35.15;;;;;;;;;;4826388;29;20037;-85
2022/03/16 19:21:23;;;;;;;70.40;37.10;;;;;;;;;;4830026;29;20026;-84
2022/03/16 19:23:50;;;;;;;72.35;38.13;;;;;;;;;;4826280;29;20037;-84
2022/03/16 19:26:18;;;;;;;72.22;37.65;;;;;;;;;;4828992;29;20038;-86
2022/03/16 19:28:45;;;;;;;63.33;33.08;;;;;;;;;;4829094;29;20124;-84
2022/03/16 19:31:12;;;;;;;72.82;38.08;;;;;;;;;;4845551;29;20042;-83
2022/03/16 19:33:38;;;;;;;75.68;37.60;;;;;;;;;;4828639;29;20483;-85
2022/03/16 19:36:24;;;;;;;70.72;38.42;;;;;;;;;;4828638;29;20086;-83
2022/03/16 19:38:54;;;;;;;75.10;38.08;;;;;;;;;;4828666;29;20448;-87
2022/03/16 19:41:20;;;;;;;62.45;33.53;;;;;;;;;;4828169;29;20115;-83
2022/03/16 19:43:46;;;;;;;78.35;40.33;;;;;;;;;;4828641;29;20484;-84
2022/03/16 19:46:12;;;;;;;81.50;43.80;;;;;;;;;;4828466;29;20038;-84
2022/03/16 19:48:39;;;;;;;90.68;44.35;;;;;;;;;;4828572;29;20033;-84
2022/03/16 19:51:08;;;;;;;76.32;39.03;;;;;;;;;;4828463;29;20042;-86
2022/03/16 19:53:35;;;;;;;72.72;39.85;;;;;;;;;;4828517;29;20033;-84
2022/03/16 19:56:10;;;;;;;73.47;38.72;;;;;;;;;;4828361;29;20042;-84
2022/03/16 19:58:36;;;;;;;66.93;35.95;;;;;;;;;;4828358;29;20022;-85
2022/03/16 20:01:02;;;;;;;65.53;37.35;;;;;;;;;;4828193;29;20053;-83
2022/03/16 20:03:31;;;;;;;63.70;35.65;;;;;;;;;;4828211;29;20407;-82
2022/03/16 20:06:05;;;;;;;73.45;39.40;;;;;;;;;;4828275;29;20113;-84
2022/03/16 20:08:37;;;;;;;74.80;36.85;;;;;;;;;;4828494;29;20067;-86
2022/03/16 20:11:04;;;;;;;81.40;41.08;;;;;;;;;;4844954;29;20068;-83
2022/03/16 20:16:49;;;;;;;63.45;32.25;;;;;;;;;;4754234;29;20485;-84
2022/03/16 20:19:18;;;;;;;65.22;34.38;;;;;;;;;;4795839;29;20038;-84
2022/03/16 20:21:46;;;;;;;81.30;42.28;;;;;;;;;;4827624;29;20380;-87
2022/03/16 20:24:24;;;;;;;70.75;33.75;;;;;;;;;;4827694;29;20022;-82
2022/03/16 20:26:50;;;;;;;71.93;36.60;;;;;;;;;;4825901;29;20030;-87
2022/03/16 20:29:23;;;;;;;78.97;41.65;;;;;;;;;;4827541;29;20119;-87
2022/03/16 20:32:10;;;;;;;84.65;42.00;;;;;;;;;;4823117;29;20041;-88
2022/03/16 20:34:45;;;;;;;70.93;34.53;;;;;;;;;;4827729;29;20037;-88
2022/03/16 20:37:11;;;;;;;82.55;38.50;;;;;;;;;;4827251;29;20120;-81
2022/03/16 20:39:40;;;;;;;79.70;40.03;;;;;;;;;;4826927;29;20464;-84
2022/03/16 20:42:44;;;;;;;88.05;43.60;;;;;;;;;;5037372;23;20060;-90
2022/03/16 20:48:23;;;;;;;70.55;34.15;;;;;;;;;;4844515;29;20098;-87
2022/03/16 20:51:01;;;;;;;71.35;37.17;;;;;;;;;;4844069;29;20044;-87
2022/03/16 20:56:33;;;;;;;73.57;34.90;;;;;;;;;;4843865;29;20121;-84
2022/03/16 21:01:52;;;;;;;75.88;35.38;;;;;;;;;;4844063;29;20120;-87
2022/03/16 21:04:18;;;;;;;83.45;35.67;;;;;;;;;;4827576;29;20054;-82
2022/03/16 21:06:45;;;;;;;83.70;37.38;;;;;;;;;;4843135;29;20022;-81
2022/03/16 21:09:32;;;;;;;83.53;37.03;;;;;;;;;;4826439;29;20034;-81
2022/03/16 21:12:02;;;;;;;78.50;35.40;;;;;;;;;;4825472;29;20566;-82
2022/03/16 21:14:35;;;;;;;78.03;34.95;;;;;;;;;;4841537;29;20022;-89
2022/03/16 21:17:02;;;;;;;81.60;35.85;;;;;;;;;;4826813;29;20038;-82
2022/03/16 21:19:28;;;;;;;79.95;35.35;;;;;;;;;;4826591;29;20032;-81
2022/03/16 21:21:54;;;;;;;81.00;37.17;;;;;;;;;;4842947;29;20502;-82
2022/03/16 21:24:26;;;;;;;76.90;36.92;;;;;;;;;;4842899;29;20037;-84
2022/03/16 21:27:08;;;;;;;82.00;38.33;;;;;;;;;;4824733;29;20064;-86
2022/03/16 21:29:38;;;;;;;95.88;42.35;;;;;;;;;;4825157;29;20120;-82
2022/03/16 21:32:07;;;;;;;98.45;42.25;;;;;;;;;;4832392;29;20077;-89
2022/03/16 21:37:27;;;;;;;86.88;39.35;;;;;;;;;;4867428;23;20823;-84
2022/03/16 21:42:45;;;;;;;91.28;41.17;;;;;;;;;;4826375;29;20037;-89
2022/03/16 21:43:00;;;;;;;85.63;38.25;;;;;;;;;;4840961;29;20030;-84
2022/03/16 21:48:04;;;;;;;91.97;39.28;;;;;;;;;;4824727;29;20046;-89
2022/03/16 21:53:23;;;;;;;87.57;38.40;;;;;;;;;;4825185;29;20102;-84
2022/03/16 21:55:55;;;;;;;99.28;38.90;;;;;;;;;;4826976;24;20054;-85
2022/03/16 21:58:28;;;;;;;91.30;38.25;;;;;;;;;;4823416;29;20065;-91
2022/03/16 22:01:06;;;;;;;92.22;40.55;;;;;;;;;;4823278;29;20038;-83
2022/03/16 22:03:34;;;;;;;93.82;39.63;;;;;;;;;;4823736;29;20026;-84
2022/03/16 22:06:04;;;;;;;96.13;39.70;;;;;;;;;;4858992;24;20411;-88
2022/03/16 22:08:31;;;;;;;92.00;39.53;;;;;;;;;;4843110;29;20030;-83
2022/03/16 22:11:00;;;;;;;127.50;48.67;;;;;;;;;;4826510;29;20073;-90
2022/03/16 22:13:29;;;;;;;114.95;46.90;;;;;;;;;;4826603;29;20121;-85
2022/03/16 22:15:55;;;;;;;119.50;47.25;;;;;;;;;;4936918;23;20050;-83
2022/03/16 22:21:21;;;;;;;99.28;42.30;;;;;;;;;;4825069;29;20091;-85
2022/03/16 22:23:54;;;;;;;107.38;41.47;;;;;;;;;;4808209;29;20129;-90
2022/03/16 22:26:34;;;;;;;110.20;44.72;;;;;;;;;;4845325;24;20054;-86
2022/03/16 22:29:00;;;;;;;118.45;45.63;;;;;;;;;;4824709;29;20113;-84
2022/03/16 22:31:26;;;;;;;97.00;39.50;;;;;;;;;;4823272;29;20121;-84
2022/03/16 22:33:53;;;;;;;106.90;41.20;;;;;;;;;;4823302;29;20038;-85
2022/03/16 22:36:31;;;;;;;97.00;40.50;;;;;;;;;;4824527;29;20029;-87
2022/03/16 22:38:58;;;;;;;137.98;49.90;;;;;;;;;;4824161;29;20046;-83
2022/03/16 22:41:24;;;;;;;150.63;57.20;;;;;;;;;;4823579;29;20533;-84
2022/03/16 22:44:00;;;;;;;114.20;47.25;;;;;;;;;;4823258;29;20073;-89
2022/03/16 22:46:26;;;;;;;102.85;40.63;;;;;;;;;;4823065;29;20026;-85
2022/03/16 22:49:24;;;;;;;95.00;40.45;;;;;;;;;;4823720;29;20035;-90
2022/03/16 22:52:23;;;;;;;89.60;36.63;;;;;;;;;;4799087;29;20050;-86
2022/03/16 22:55:27;;;;;;;102.50;41.55;;;;;;;;;;4802144;29;20043;-89
2022/03/16 22:57:54;;;;;;;93.38;39.80;;;;;;;;;;4770473;30;20082;-84
2022/03/16 23:00:27;;;;;;;104.43;40.65;;;;;;;;;;4788405;29;20067;-84
2022/03/16 23:02:55;;;;;;;96.18;39.40;;;;;;;;;;4808925;29;20480;-84
2022/03/16 23:05:21;;;;;;;101.28;40.22;;;;;;;;;;4827498;29;20033;-84
2022/03/16 23:07:57;;;;;;;89.70;40.35;;;;;;;;;;4825172;29;20041;-88
2022/03/16 23:10:24;;;;;;;93.43;39.90;;;;;;;;;;4826256;29;20113;-82
2022/03/16 23:13:04;;;;;;;;;;;;;;;;;;;;;
2022/03/16 23:16:01;;;;;;;87.63;35.13;;;;;;;;;;4898574;24;20042;-82
2022/03/16 23:18:28;;;;;;;76.30;33.13;;;;;;;;;;4810623;29;20043;-82
2022/03/16 23:21:14;;;;;;;80.43;33.67;;;;;;;;;;4850230;23;20476;-89
2022/03/16 23:24:01;;;;;;;92.28;35.90;;;;;;;;;;4828126;29;20090;-90
2022/03/16 23:26:28;;;;;;;81.32;34.45;;;;;;;;;;4842304;24;20141;-83
2022/03/16 23:29:06;;;;;;;83.35;35.33;;;;;;;;;;4827076;29;20031;-87
2022/03/16 23:31:33;;;;;;;77.93;32.25;;;;;;;;;;4825598;29;20049;-85
2022/03/16 23:33:59;;;;;;;73.28;32.17;;;;;;;;;;4827175;29;20492;-84
2022/03/16 23:36:30;;;;;;;73.70;31.98;;;;;;;;;;4825915;29;20030;-90
2022/03/16 23:38:59;;;;;;;76.35;32.40;;;;;;;;;;4827358;29;20062;-88
2022/03/16 23:41:25;;;;;;;71.15;30.70;;;;;;;;;;4825362;29;20035;-84
2022/03/16 23:43:51;;;;;;;68.30;29.30;;;;;;;;;;4825846;29;20106;-84
2022/03/16 23:46:25;;;;;;;66.20;29.15;;;;;;;;;;4825918;29;20459;-90
2022/03/16 23:48:51;;;;;;;75.68;32.72;;;;;;;;;;4825791;29;20022;-85
2022/03/16 23:51:18;;;;;;;73.93;31.35;;;;;;;;;;4826593;29;20042;-90
2022/03/16 23:56:36;;;;;;;72.50;31.73;;;;;;;;;;4818218;29;20049;-85
2022/03/16 23:59:56;;;;;;;77.45;30.42;;;;;;;;;;4825919;29;20027;-89
